createdAt,value
2022-08-19T00:04:02.667Z,18.70
2022-08-19T00:09:07.946Z,15.77
2022-08-19T00:14:12.486Z,16.07
2022-08-19T00:19:17.689Z,18.07
2022-08-19T00:24:21.342Z,20.70
2022-08-19T00:29:25.606Z,18.83
2022-08-19T00:34:30.546Z,18.23
2022-08-19T00:39:33.889Z,19.63
2022-08-19T00:44:37.463Z,19.27
2022-08-19T00:49:43.752Z,19.30
2022-08-19T00:54:52.384Z,22.50
2022-08-19T01:00:02.563Z,21.30
2022-08-19T01:05:10.367Z,20.27
2022-08-19T01:10:15.073Z,22.30
2022-08-19T01:15:19.612Z,24.13
2022-08-19T01:20:25.976Z,21.50
2022-08-19T01:25:32.413Z,22.47
2022-08-19T01:30:37.371Z,24.67
2022-08-19T01:35:41.187Z,24.67
2022-08-19T01:40:45.932Z,22.30
2022-08-19T01:45:49.332Z,24.30
2022-08-19T01:50:52.701Z,25.53
2022-08-19T01:55:58.004Z,24.57
2022-08-19T02:01:01.458Z,26.13
2022-08-19T02:06:06.256Z,21.93
2022-08-19T02:11:11.162Z,26.97
2022-08-19T02:16:14.509Z,23.53
2022-08-19T02:21:18.144Z,27.57
2022-08-19T02:26:23.018Z,27.00
2022-08-19T02:31:28.682Z,25.37
2022-08-19T02:36:32.367Z,27.80
2022-08-19T02:41:37.997Z,26.17
2022-08-19T02:46:41.363Z,28.60
2022-08-19T02:51:46.735Z,25.63
2022-08-19T02:56:51.522Z,30.13
2022-08-19T03:01:54.898Z,27.97
2022-08-19T03:07:02.520Z,27.40
2022-08-19T03:12:15.667Z,28.00
2022-08-19T03:17:18.934Z,29.53
2022-08-19T03:22:22.842Z,27.10
2022-08-19T03:27:34.173Z,26.87
2022-08-19T03:32:45.670Z,26.37
2022-08-19T03:37:49.127Z,26.53
2022-08-19T03:42:54.062Z,24.17
2022-08-19T03:48:00.222Z,22.67
2022-08-19T03:53:03.624Z,24.30
2022-08-19T03:58:08.383Z,23.93
2022-08-19T04:03:11.852Z,27.30
2022-08-19T04:08:16.307Z,28.63
2022-08-19T04:13:21.087Z,27.00
2022-08-19T04:18:25.054Z,27.57
2022-08-19T04:23:29.421Z,25.83
2022-08-19T04:28:34.190Z,27.00
2022-08-19T04:33:37.683Z,27.00
2022-08-19T04:38:41.090Z,30.67
2022-08-19T04:43:48.639Z,24.40
2022-08-19T04:48:52.052Z,29.20
2022-08-19T04:53:57.834Z,26.20
2022-08-19T04:59:05.283Z,29.63
2022-08-19T05:04:08.769Z,26.97
2022-08-19T05:09:12.412Z,28.83
2022-08-19T05:14:17.272Z,29.87
2022-08-19T05:19:43.590Z,28.27
2022-08-19T05:25:11.360Z,29.77
2022-08-19T05:30:15.628Z,30.60
2022-08-19T05:35:20.078Z,29.03
2022-08-19T05:40:24.072Z,29.13
2022-08-19T05:45:32.074Z,28.47
2022-08-19T05:50:35.460Z,27.27
2022-08-19T05:55:40.667Z,29.17
2022-08-19T06:00:46.111Z,27.33
2022-08-19T06:05:52.309Z,27.43
2022-08-19T06:10:55.968Z,28.80
2022-08-19T06:16:00.673Z,30.70
2022-08-19T06:21:05.590Z,27.67
2022-08-19T06:26:13.469Z,26.60
2022-08-19T06:31:19.643Z,26.53
2022-08-19T06:36:25.545Z,28.47
2022-08-19T06:41:30.737Z,25.70
2022-08-19T06:46:35.694Z,26.53
2022-08-19T06:51:42.463Z,27.13
2022-08-19T06:56:47.362Z,28.13
2022-08-19T07:01:52.898Z,28.80
2022-08-19T07:06:59.663Z,32.87
2022-08-19T07:12:18.549Z,28.33
2022-08-19T07:17:27.792Z,22.37
2022-08-19T07:22:31.665Z,26.80
2022-08-19T07:27:35.008Z,29.37
2022-08-19T07:32:39.775Z,28.30
2022-08-19T07:37:45.286Z,29.17
2022-08-19T07:42:48.659Z,29.37
2022-08-19T07:47:53.585Z,27.20
2022-08-19T07:52:58.076Z,29.17
2022-08-19T07:58:01.470Z,25.53
2022-08-19T08:03:09.605Z,28.27
2022-08-19T08:08:44.116Z,28.77
2022-08-19T08:14:00.681Z,25.10
2022-08-19T08:19:14.810Z,27.63
2022-08-19T08:24:29.194Z,26.13
2022-08-19T08:29:35.342Z,31.83
2022-08-19T08:34:40.024Z,25.43
2022-08-19T08:39:43.837Z,26.67
2022-08-19T08:44:51.647Z,26.20
2022-08-19T08:50:00.540Z,26.43
2022-08-19T08:55:10.449Z,25.67
2022-08-19T09:00:17.534Z,32.93
2022-08-19T09:05:26.046Z,30.90
2022-08-19T09:10:31.814Z,27.60
2022-08-19T09:15:38.789Z,30.33
2022-08-19T09:20:43.758Z,26.53
2022-08-19T09:25:47.660Z,28.80
2022-08-19T09:30:51.219Z,27.33
2022-08-19T09:36:08.594Z,27.33
2022-08-19T09:41:14.580Z,25.23
2022-08-19T09:46:19.214Z,24.30
2022-08-19T09:51:25.618Z,25.13
2022-08-19T09:56:29.460Z,29.17
2022-08-19T10:01:33.796Z,28.27
2022-08-19T10:06:45.831Z,25.83
2022-08-19T10:11:54.791Z,26.40
2022-08-19T10:16:59.331Z,26.93
2022-08-19T10:22:06.470Z,27.83
2022-08-19T10:27:15.759Z,31.57
2022-08-19T10:32:19.574Z,24.87
2022-08-19T10:37:55.982Z,22.37
2022-08-19T10:43:01.062Z,24.53
2022-08-19T10:48:04.880Z,23.93
2022-08-19T10:53:10.571Z,19.13
2022-08-19T10:58:14.461Z,18.90
2022-08-19T11:03:18.092Z,21.13
2022-08-19T11:08:24.157Z,23.23
2022-08-19T11:13:27.535Z,25.70
2022-08-19T11:18:30.980Z,31.37
2022-08-19T11:23:35.963Z,29.47
2022-08-19T11:28:39.724Z,32.27
2022-08-19T11:33:47.593Z,29.73
2022-08-19T11:38:53.103Z,34.87
2022-08-19T11:43:56.973Z,31.00
2022-08-19T11:49:01.666Z,33.20
2022-08-19T11:54:07.393Z,33.83
2022-08-19T11:59:14.614Z,32.43
2022-08-19T12:04:18.617Z,28.37
2022-08-19T12:09:25.138Z,24.93
2022-08-19T12:14:31.218Z,23.03
2022-08-19T12:19:35.084Z,24.17
2022-08-19T12:24:39.977Z,26.37
2022-08-19T12:29:43.465Z,25.27
2022-08-19T12:34:48.339Z,24.50
2022-08-19T12:39:53.411Z,25.90
2022-08-19T12:44:56.810Z,28.40
2022-08-19T12:50:01.393Z,28.23
2022-08-19T12:55:08.912Z,28.90
2022-08-19T13:00:13.575Z,23.80
2022-08-19T13:05:18.125Z,19.33
2022-08-19T13:10:23.344Z,17.93
2022-08-19T13:15:26.870Z,18.67
2022-08-19T13:20:30.423Z,14.40
2022-08-19T13:25:36.233Z,11.17
2022-08-19T13:30:56.916Z,12.73
2022-08-19T13:36:01.713Z,18.20
2022-08-19T13:41:12.205Z,17.03
2022-08-19T13:46:18.134Z,17.13
2022-08-19T13:51:21.656Z,15.03
2022-08-19T13:56:26.699Z,16.70
2022-08-19T14:01:31.589Z,20.17
2022-08-19T14:06:35.424Z,15.53
2022-08-19T14:11:40.331Z,19.27
2022-08-19T14:16:43.854Z,22.20
2022-08-19T14:21:47.391Z,22.23
2022-08-19T14:26:52.183Z,23.10
2022-08-19T14:31:55.577Z,22.93
2022-08-19T14:36:59.160Z,22.20
2022-08-19T14:42:11.504Z,20.67
2022-08-19T14:47:15.214Z,26.77
2022-08-19T14:52:18.831Z,19.80
2022-08-19T14:57:23.732Z,22.77
2022-08-19T15:02:34.783Z,20.53
2022-08-19T15:07:39.332Z,18.10
2022-08-19T15:12:47.564Z,22.50
2022-08-19T15:17:53.378Z,21.27
2022-08-19T15:22:57.107Z,18.43
2022-08-19T15:28:02.072Z,19.50
2022-08-19T15:33:05.724Z,17.17
2022-08-19T15:38:09.446Z,17.37
2022-08-19T15:43:14.217Z,15.37
2022-08-19T15:48:17.767Z,18.67
2022-08-19T15:53:21.249Z,16.67
2022-08-19T15:58:43.469Z,16.67
2022-08-19T16:04:04.169Z,15.10
2022-08-19T16:09:07.810Z,12.37
2022-08-19T16:14:12.811Z,17.80
2022-08-19T16:19:17.195Z,13.87
2022-08-19T16:24:23.691Z,14.50
2022-08-19T16:29:34.769Z,15.93
2022-08-19T16:34:42.990Z,16.57
2022-08-19T16:39:46.526Z,15.37
2022-08-19T16:44:51.661Z,16.40
2022-08-19T16:49:55.530Z,12.90
2022-08-19T16:54:59.244Z,20.17
2022-08-19T17:00:08.896Z,11.27
2022-08-19T17:05:12.521Z,13.30
2022-08-19T17:10:15.941Z,15.03
2022-08-19T17:15:20.987Z,14.03
2022-08-19T17:20:24.624Z,20.67
2022-08-19T17:25:31.109Z,17.20
2022-08-19T17:30:36.110Z,14.67
2022-08-19T17:35:43.660Z,16.47
2022-08-19T17:40:47.491Z,16.20
2022-08-19T17:45:52.670Z,17.40
2022-08-19T17:50:56.237Z,20.83
2022-08-19T17:56:02.547Z,18.03
2022-08-19T18:01:08.488Z,18.47
2022-08-19T18:06:15.779Z,18.27
2022-08-19T18:11:19.351Z,22.20
2022-08-19T18:16:25.312Z,19.30
2022-08-19T18:21:31.844Z,19.57
2022-08-19T18:26:35.339Z,24.03
2022-08-19T18:31:40.349Z,18.73
2022-08-19T18:36:53.763Z,17.70
2022-08-19T18:42:15.072Z,20.00
2022-08-19T18:47:39.459Z,18.10
2022-08-19T18:52:42.990Z,15.37
2022-08-19T18:57:46.506Z,18.00
2022-08-19T19:02:51.259Z,17.10
2022-08-19T19:07:55.012Z,15.00
2022-08-19T19:12:59.112Z,15.30
2022-08-19T19:18:03.976Z,15.77
2022-08-19T19:23:07.654Z,15.87
2022-08-19T19:28:15.992Z,13.73
2022-08-19T19:33:20.906Z,13.97
2022-08-19T19:38:24.420Z,16.87
2022-08-19T19:43:28.479Z,16.10
2022-08-19T19:48:39.673Z,18.03
2022-08-19T19:53:43.289Z,15.03
2022-08-19T19:58:48.519Z,17.73
2022-08-19T20:03:53.361Z,14.93
2022-08-19T20:09:10.659Z,17.10
2022-08-19T20:14:15.212Z,16.03
2022-08-19T20:19:21.318Z,15.53
2022-08-19T20:24:26.291Z,16.80
2022-08-19T20:29:39.598Z,17.97
2022-08-19T20:34:49.172Z,18.13
2022-08-19T20:39:52.858Z,20.47
2022-08-19T20:44:56.815Z,20.70
2022-08-19T20:50:01.693Z,23.40
2022-08-19T20:55:05.899Z,23.17
2022-08-19T21:00:11.509Z,23.60
2022-08-19T21:05:16.430Z,23.20
2022-08-19T21:10:20.029Z,23.87
2022-08-19T21:15:24.714Z,23.13
2022-08-19T21:20:29.400Z,23.57
2022-08-19T21:25:32.892Z,24.10
2022-08-19T21:30:36.365Z,26.17
2022-08-19T21:35:41.621Z,25.00
2022-08-19T21:40:45.060Z,22.83
2022-08-19T21:45:48.627Z,25.43
2022-08-19T21:50:53.422Z,25.57
2022-08-19T21:55:56.791Z,23.83
2022-08-19T22:01:00.373Z,23.83
2022-08-19T22:06:05.437Z,19.57
2022-08-19T22:11:09.051Z,17.73
2022-08-19T22:16:18.104Z,18.73
2022-08-19T22:21:40.556Z,21.07
2022-08-19T22:26:44.431Z,19.13
2022-08-19T22:31:54.512Z,17.10
2022-08-19T22:37:03.122Z,17.17
2022-08-19T22:42:07.020Z,16.23
2022-08-19T22:47:10.602Z,16.23
2022-08-19T22:52:18.488Z,14.63
2022-08-19T22:57:22.737Z,13.40
2022-08-19T23:02:27.402Z,13.93
2022-08-19T23:07:32.266Z,18.17
2022-08-19T23:12:37.999Z,14.57
2022-08-19T23:17:41.600Z,14.30
2022-08-19T23:22:47.614Z,12.83
2022-08-19T23:28:08.812Z,9.47
2022-08-19T23:33:15.558Z,18.73
2022-08-19T23:38:22.761Z,13.10
2022-08-19T23:43:29.810Z,13.37
2022-08-19T23:48:34.192Z,13.80
2022-08-19T23:53:39.767Z,14.27
2022-08-19T23:58:43.290Z,17.73
